Time;durP1;ratioP1;P1;durP2;ratioP2;P2;SDS_P1;SDS_P2;PMS_P1;PMS_P2;Temp;Humidity;BMP_temperature;BMP_pressure;BME280_temperature;BME280_humidity;BME280_pressure;Samples;Min_cycle;Max_cycle;Signal;HPM_P1;HPM_P2
2021/07/10 00:00:19;;;;;;;4.25;3.63;;;;;;;14.34;100.00;100800.50;5004504;28;20500;-68
2021/07/10 00:02:47;;;;;;;5.53;4.07;;;;;;;14.27;100.00;100799.22;4991343;28;20049;-68
2021/07/10 00:05:15;;;;;;;4.03;3.72;;;;;;;14.15;100.00;100801.81;5009717;28;20548;-68
2021/07/10 00:07:43;;;;;;;5.05;3.75;;;;;;;14.25;100.00;100801.16;4982019;28;20054;-68
2021/07/10 00:10:14;;;;;;;5.10;4.10;;;;;;;14.22;100.00;100798.72;4995498;28;20060;-67
2021/07/10 00:12:41;;;;;;;5.15;4.03;;;;;;;14.25;100.00;100795.88;4978484;28;20068;-68
2021/07/10 00:15:11;;;;;;;5.13;3.97;;;;;;;14.28;100.00;100798.31;4996474;28;20050;-68
2021/07/10 00:17:39;;;;;;;4.80;4.30;;;;;;;14.26;100.00;100802.84;4997725;28;20054;-67
2021/07/10 00:20:07;;;;;;;5.03;4.28;;;;;;;14.21;100.00;100800.53;4999464;28;20404;-67
2021/07/10 00:22:35;;;;;;;4.47;4.07;;;;;;;14.18;100.00;100792.78;4998136;28;20731;-67
2021/07/10 00:25:05;;;;;;;7.28;4.07;;;;;;;14.21;100.00;100812.91;5010196;28;20381;-67
2021/07/10 00:27:33;;;;;;;6.13;3.88;;;;;;;14.14;100.00;100802.78;4981528;28;20050;-67
2021/07/10 00:30:00;;;;;;;4.63;4.18;;;;;;;14.14;100.00;100815.16;4999149;28;20407;-67
2021/07/10 00:32:28;;;;;;;4.78;4.28;;;;;;;14.15;100.00;100808.91;4993681;28;20378;-68
2021/07/10 00:34:55;;;;;;;5.82;4.10;;;;;;;14.15;100.00;100804.47;5009514;28;20535;-67
2021/07/10 00:37:22;;;;;;;7.38;5.05;;;;;;;14.15;100.00;100800.97;5008882;28;20046;-68
2021/07/10 00:39:50;;;;;;;7.45;4.75;;;;;;;14.18;100.00;100808.69;5001341;28;20532;-67
2021/07/10 00:42:21;;;;;;;4.70;4.03;;;;;;;14.17;100.00;100801.69;4979986;28;20065;-68
2021/07/10 00:44:49;;;;;;;6.97;4.45;;;;;;;14.19;100.00;100805.09;4997734;28;20061;-68
2021/07/10 00:47:17;;;;;;;5.43;4.22;;;;;;;14.17;100.00;100805.19;4995648;28;20054;-67
2021/07/10 00:49:44;;;;;;;6.00;4.22;;;;;;;14.17;100.00;100807.84;4987132;28;20050;-66
2021/07/10 00:52:11;;;;;;;4.38;3.95;;;;;;;14.13;100.00;100809.00;5009212;28;20056;-66
2021/07/10 00:54:39;;;;;;;5.00;4.28;;;;;;;14.14;100.00;100804.59;4999886;28;20058;-69
2021/07/10 00:57:07;;;;;;;6.25;4.53;;;;;;;14.14;100.00;100794.84;5008788;28;20584;-67
2021/07/10 00:59:35;;;;;;;5.30;4.57;;;;;;;14.26;100.00;100792.25;5011323;28;20054;-67
2021/07/10 01:02:03;;;;;;;5.15;4.65;;;;;;;14.24;100.00;100799.47;4994534;28;20050;-67
2021/07/10 01:04:31;;;;;;;4.85;4.38;;;;;;;14.19;100.00;100797.16;5004445;28;21215;-67
2021/07/10 01:06:58;;;;;;;5.18;4.68;;;;;;;14.20;100.00;100793.53;5008793;28;20054;-66
2021/07/10 01:09:26;;;;;;;4.53;4.13;;;;;;;14.23;100.00;100798.63;5009982;28;20049;-66
2021/07/10 01:11:54;;;;;;;4.18;3.78;;;;;;;14.26;100.00;100790.44;5004914;28;20038;-68
2021/07/10 01:14:22;;;;;;;4.80;4.30;;;;;;;14.28;100.00;100785.91;5005107;28;20099;-67
2021/07/10 01:16:49;;;;;;;4.75;4.35;;;;;;;14.33;100.00;100786.41;5009692;28;20049;-66
2021/07/10 01:19:25;;;;;;;4.63;4.13;;;;;;;14.33;100.00;100786.41;5010460;28;20054;-67
2021/07/10 01:21:54;;;;;;;4.35;3.97;;;;;;;14.33;100.00;100777.63;4991402;28;20124;-66
2021/07/10 01:24:22;;;;;;;4.85;4.35;;;;;;;14.30;100.00;100788.44;5004261;28;20461;-67
2021/07/10 01:26:50;;;;;;;5.60;4.95;;;;;;;14.24;100.00;100791.53;5008487;28;20685;-67
2021/07/10 01:29:18;;;;;;;9.23;5.60;;;;;;;14.21;100.00;100782.00;5009531;28;20499;-67
2021/07/10 01:31:46;;;;;;;8.73;5.38;;;;;;;14.27;100.00;100776.25;4995243;28;20122;-68
2021/07/10 01:34:13;;;;;;;7.43;6.05;;;;;;;14.22;100.00;100769.59;5010132;28;20050;-67
2021/07/10 01:36:41;;;;;;;7.93;7.10;;;;;;;14.15;100.00;100777.97;5014392;28;20627;-66
2021/07/10 01:39:08;;;;;;;9.48;7.43;;;;;;;14.17;100.00;100776.06;5011669;28;20068;-66
2021/07/10 01:41:44;;;;;;;8.07;7.35;;;;;;;14.17;100.00;100767.28;4996844;28;20083;-67
2021/07/10 01:44:11;;;;;;;8.68;6.82;;;;;;;14.13;100.00;100773.75;4994634;28;20053;-67
2021/07/10 01:46:39;;;;;;;12.40;8.45;;;;;;;14.12;100.00;100775.53;4995258;28;20050;-67
2021/07/10 01:49:06;;;;;;;10.15;8.10;;;;;;;14.14;100.00;100773.66;5014019;28;20535;-66
2021/07/10 01:51:34;;;;;;;10.13;8.20;;;;;;;14.21;100.00;100770.56;5011382;28;20038;-66
2021/07/10 01:54:01;;;;;;;10.30;8.20;;;;;;;14.24;100.00;100770.34;5016325;28;20041;-66
2021/07/10 01:56:29;;;;;;;10.00;8.85;;;;;;;14.23;100.00;100765.97;5006380;28;20049;-67
2021/07/10 01:58:56;;;;;;;11.07;9.10;;;;;;;14.24;100.00;100767.69;4990336;28;20037;-68
2021/07/10 02:01:24;;;;;;;11.30;9.27;;;;;;;14.29;100.00;100776.16;5010179;28;20056;-65
2021/07/10 02:03:52;;;;;;;11.07;9.65;;;;;;;14.25;100.00;100764.94;5009216;28;20056;-68
2021/07/10 02:06:20;;;;;;;11.55;10.32;;;;;;;14.22;100.00;100766.94;4995630;28;20056;-68
2021/07/10 02:08:47;;;;;;;15.15;10.35;;;;;;;14.25;100.00;100764.94;5009019;28;20052;-67
2021/07/10 02:11:14;;;;;;;13.82;11.60;;;;;;;14.19;100.00;100760.94;5011752;28;20528;-67
2021/07/10 02:13:42;;;;;;;13.25;11.18;;;;;;;14.27;100.00;100770.09;5007652;28;20054;-67
2021/07/10 02:16:14;;;;;;;11.93;10.73;;;;;;;14.24;100.00;100763.25;5001154;28;20053;-67
2021/07/10 02:18:42;;;;;;;13.50;12.02;;;;;;;14.25;100.00;100764.09;4974338;28;20054;-66
2021/07/10 02:21:09;;;;;;;11.93;10.75;;;;;;;14.31;100.00;100758.34;4974369;28;20501;-66
2021/07/10 02:23:37;;;;;;;14.60;12.18;;;;;;;14.30;100.00;100762.78;5009723;28;20485;-68
2021/07/10 02:26:04;;;;;;;14.60;12.75;;;;;;;14.35;100.00;100765.09;5004710;28;20060;-67
2021/07/10 02:28:31;;;;;;;15.10;12.52;;;;;;;14.38;100.00;100772.84;5012652;28;20053;-68
2021/07/10 02:30:59;;;;;;;18.98;12.82;;;;;;;14.44;100.00;100769.72;4983148;28;20049;-68
2021/07/10 02:33:26;;;;;;;16.00;12.32;;;;;;;14.44;100.00;100767.09;5009168;28;20080;-68
2021/07/10 02:35:53;;;;;;;16.65;12.63;;;;;;;14.54;100.00;100772.59;5001627;28;20168;-68
2021/07/10 02:38:21;;;;;;;15.63;13.85;;;;;;;14.59;100.00;100771.31;5009099;28;20045;-68
2021/07/10 02:40:48;;;;;;;16.85;13.50;;;;;;;14.57;100.00;100775.03;5010039;28;20392;-68
2021/07/10 02:43:15;;;;;;;18.13;12.95;;;;;;;14.53;100.00;100784.16;5012533;28;20042;-67
2021/07/10 02:45:43;;;;;;;15.90;14.05;;;;;;;14.61;100.00;100787.09;4989635;28;20050;-68
2021/07/10 02:48:12;;;;;;;14.98;13.52;;;;;;;14.66;100.00;100780.47;4990772;28;20050;-68
2021/07/10 02:50:40;;;;;;;18.70;15.35;;;;;;;14.66;100.00;100784.94;5005629;28;20072;-67
2021/07/10 02:53:07;;;;;;;15.57;13.98;;;;;;;14.66;100.00;100782.28;5011802;28;20060;-68
2021/07/10 02:55:35;;;;;;;15.48;13.15;;;;;;;14.70;100.00;100786.41;4986903;28;20056;-66
2021/07/10 02:58:03;;;;;;;17.40;14.50;;;;;;;14.77;100.00;100781.50;5013389;28;20050;-66
2021/07/10 03:00:31;;;;;;;15.27;13.65;;;;;;;14.74;100.00;100781.75;5006720;28;20126;-66
2021/07/10 03:02:59;;;;;;;17.77;13.52;;;;;;;14.78;100.00;100783.22;4999167;28;20049;-66
2021/07/10 03:05:31;;;;;;;15.98;14.05;;;;;;;14.78;100.00;100783.22;5012962;28;20059;-67
2021/07/10 03:07:59;;;;;;;18.35;12.95;;;;;;;14.85;100.00;100782.63;5000017;28;20049;-67
2021/07/10 03:10:29;;;;;;;17.30;13.65;;;;;;;14.86;100.00;100794.06;4994116;28;20056;-67
2021/07/10 03:12:58;;;;;;;18.05;12.77;;;;;;;14.94;100.00;100789.03;4999788;28;20050;-67
2021/07/10 03:15:26;;;;;;;17.27;13.85;;;;;;;14.98;100.00;100782.56;5018864;28;20049;-67
2021/07/10 03:17:54;;;;;;;18.13;14.18;;;;;;;14.95;100.00;100788.09;4993112;28;20064;-68
2021/07/10 03:20:23;;;;;;;15.95;14.25;;;;;;;14.95;100.00;100793.41;5001718;28;20046;-67
2021/07/10 03:22:51;;;;;;;15.25;13.65;;;;;;;14.93;100.00;100795.31;4993593;28;20115;-67
2021/07/10 03:25:18;;;;;;;16.30;13.10;;;;;;;14.96;100.00;100797.75;5005718;28;20690;-67
2021/07/10 03:27:47;;;;;;;14.38;12.80;;;;;;;14.99;100.00;100799.31;4996080;28;20076;-68
2021/07/10 03:30:18;;;;;;;18.80;14.48;;;;;;;15.06;100.00;100792.59;4992561;28;20054;-67
2021/07/10 03:32:46;;;;;;;14.20;11.80;;;;;;;15.05;100.00;100801.50;4992812;28;20516;-67
2021/07/10 03:35:15;;;;;;;14.32;12.90;;;;;;;15.07;100.00;100799.56;5006451;28;20057;-67
2021/07/10 03:37:45;;;;;;;14.85;11.88;;;;;;;15.05;100.00;100802.34;4994916;28;20095;-68
2021/07/10 03:40:15;;;;;;;15.80;12.82;;;;;;;15.11;100.00;100801.88;5001169;28;20053;-68
2021/07/10 03:42:43;;;;;;;14.07;12.48;;;;;;;15.26;100.00;100797.22;4981526;28;20056;-67
2021/07/10 03:45:12;;;;;;;13.75;12.45;;;;;;;15.25;100.00;100797.34;5006261;28;20062;-68
2021/07/10 03:47:47;;;;;;;13.68;12.32;;;;;;;15.42;100.00;100799.56;5002868;28;20547;-67
2021/07/10 03:50:16;;;;;;;13.45;12.07;;;;;;;15.28;100.00;100799.78;5002748;28;20056;-66
2021/07/10 03:52:43;;;;;;;13.60;12.25;;;;;;;15.25;100.00;100800.00;5006162;28;20148;-68
2021/07/10 03:55:12;;;;;;;13.30;11.18;;;;;;;15.28;100.00;100805.94;5002973;28;20054;-67
2021/07/10 03:57:40;;;;;;;13.35;11.98;;;;;;;15.23;100.00;100810.72;4994814;28;20053;-68
2021/07/10 04:00:12;;;;;;;12.40;11.13;;;;;;;15.28;100.00;100813.03;4988403;28;20056;-68
2021/07/10 04:02:40;;;;;;;15.05;11.73;;;;;;;15.31;100.00;100820.75;5007055;28;20058;-69
2021/07/10 04:05:08;;;;;;;15.05;12.13;;;;;;;15.23;100.00;100823.16;5008853;28;20046;-67
2021/07/10 04:07:37;;;;;;;14.45;12.98;;;;;;;15.35;100.00;100820.41;5001553;28;20057;-67
2021/07/10 04:10:07;;;;;;;12.02;10.82;;;;;;;15.43;100.00;100817.16;4992906;28;20473;-68
2021/07/10 04:12:34;;;;;;;14.00;12.57;;;;;;;15.37;100.00;100821.16;4975265;28;20779;-68
2021/07/10 04:15:03;;;;;;;13.82;12.43;;;;;;;15.27;100.00;100833.41;4996783;28;20109;-68
2021/07/10 04:17:31;;;;;;;14.23;11.30;;;;;;;15.20;100.00;100835.66;5012760;28;20119;-66
2021/07/10 04:19:59;;;;;;;15.38;13.13;;;;;;;15.34;100.00;100839.09;4986925;28;20046;-67
2021/07/10 04:22:26;;;;;;;22.13;13.65;;;;;;;15.30;100.00;100837.63;4988985;28;20038;-67
2021/07/10 04:24:54;;;;;;;15.18;13.68;;;;;;;15.21;100.00;100844.47;4990190;28;20050;-66
2021/07/10 04:27:21;;;;;;;19.63;14.05;;;;;;;15.32;100.00;100843.69;4972265;28;20073;-68
2021/07/10 04:29:49;;;;;;;21.70;15.02;;;;;;;15.23;100.00;100845.22;5007405;28;20068;-68
2021/07/10 04:32:17;;;;;;;17.25;14.15;;;;;;;15.25;100.00;100843.28;4995954;28;20046;-68
2021/07/10 04:34:44;;;;;;;18.98;15.35;;;;;;;15.17;100.00;100845.66;4993304;28;20133;-67
2021/07/10 04:37:13;;;;;;;21.73;15.25;;;;;;;15.10;100.00;100853.22;4996330;28;20052;-68
2021/07/10 04:39:40;;;;;;;19.83;16.23;;;;;;;15.11;100.00;100857.56;5006616;28;20129;-68
2021/07/10 04:42:08;;;;;;;23.30;17.02;;;;;;;15.10;100.00;100860.34;5005924;28;20064;-68
2021/07/10 04:44:35;;;;;;;17.67;13.95;;;;;;;15.08;100.00;100870.19;4993855;28;20407;-68
2021/07/10 04:47:03;;;;;;;21.17;15.88;;;;;;;15.14;100.00;100872.41;5008925;28;20072;-68
2021/07/10 04:49:31;;;;;;;19.77;15.82;;;;;;;15.15;100.00;100874.09;4981404;28;20062;-67
2021/07/10 04:51:58;;;;;;;20.00;16.77;;;;;;;15.15;100.00;100867.00;4987741;28;20399;-67
2021/07/10 04:54:25;;;;;;;24.42;17.27;;;;;;;15.17;100.00;100875.69;5000218;28;20061;-67
2021/07/10 04:56:53;;;;;;;18.30;16.17;;;;;;;15.11;100.00;100884.09;5010852;28;20057;-68
2021/07/10 04:59:20;;;;;;;26.25;15.48;;;;;;;15.23;100.00;100887.66;4998749;28;20058;-66
2021/07/10 05:01:48;;;;;;;20.17;15.82;;;;;;;15.22;100.00;100890.41;4994350;28;20095;-67
2021/07/10 05:04:15;;;;;;;16.25;14.48;;;;;;;15.23;100.00;100892.09;5010855;28;20049;-68
2021/07/10 05:06:42;;;;;;;19.17;15.25;;;;;;;15.30;100.00;100891.53;5006743;28;20060;-67
2021/07/10 05:09:10;;;;;;;24.00;14.57;;;;;;;15.26;100.00;100899.81;5004796;28;20064;-67
2021/07/10 05:11:37;;;;;;;16.50;14.15;;;;;;;15.23;100.00;100894.75;5006480;28;20060;-67
2021/07/10 05:14:04;;;;;;;22.13;13.90;;;;;;;15.18;100.00;100898.59;4998582;28;20056;-67
2021/07/10 05:16:32;;;;;;;17.38;14.70;;;;;;;15.16;100.00;100902.31;5007213;28;20051;-67
2021/07/10 05:19:00;;;;;;;16.85;14.32;;;;;;;15.27;100.00;100898.88;5017350;28;20388;-68
2021/07/10 05:21:27;;;;;;;22.02;14.38;;;;;;;15.35;100.00;100905.28;5010765;28;20053;-67
2021/07/10 05:23:55;;;;;;;17.73;14.52;;;;;;;15.39;100.00;100900.59;4993628;28;20500;-67
2021/07/10 05:26:22;;;;;;;16.45;14.10;;;;;;;15.39;100.00;100914.72;5007162;28;20046;-67
2021/07/10 05:28:49;;;;;;;15.60;13.45;;;;;;;15.39;100.00;100909.41;4993397;28;20430;-67
2021/07/10 05:31:17;;;;;;;21.00;13.40;;;;;;;15.61;100.00;100916.59;4989784;28;20234;-67
2021/07/10 05:33:44;;;;;;;17.92;13.93;;;;;;;15.51;100.00;100909.47;5011384;28;20049;-67
2021/07/10 05:36:12;;;;;;;22.58;14.23;;;;;;;15.41;100.00;100911.97;5006189;28;20064;-67
2021/07/10 05:38:39;;;;;;;16.50;13.40;;;;;;;15.48;100.00;100913.19;5010319;28;20060;-68
2021/07/10 05:41:07;;;;;;;17.70;13.23;;;;;;;15.51;100.00;100920.91;4989618;28;20054;-68
2021/07/10 05:43:34;;;;;;;17.80;13.65;;;;;;;15.51;100.00;100920.06;4997009;28;20457;-68
2021/07/10 05:46:01;;;;;;;17.75;13.32;;;;;;;15.57;100.00;100917.78;5000662;28;20058;-67
2021/07/10 05:48:29;;;;;;;18.60;14.15;;;;;;;15.64;100.00;100916.41;5011208;28;20056;-67
2021/07/10 05:50:56;;;;;;;20.42;14.15;;;;;;;15.65;100.00;100923.41;5007740;28;20535;-68
2021/07/10 05:53:24;;;;;;;21.23;14.80;;;;;;;15.68;100.00;100917.03;5016258;28;20048;-68
2021/07/10 05:55:51;;;;;;;15.45;12.70;;;;;;;15.65;100.00;100912.78;5012501;28;20220;-67
2021/07/10 05:58:18;;;;;;;15.05;12.27;;;;;;;15.81;100.00;100919.59;5020276;28;20445;-68
2021/07/10 06:00:46;;;;;;;15.88;14.27;;;;;;;15.98;100.00;100927.09;5004586;28;20050;-68
2021/07/10 06:03:13;;;;;;;13.85;11.93;;;;;;;16.17;100.00;100926.56;5009242;28;20045;-67
2021/07/10 06:05:40;;;;;;;15.35;11.32;;;;;;;16.49;100.00;100913.41;5013746;28;20053;-68
2021/07/10 06:08:08;;;;;;;14.48;11.40;;;;;;;16.78;100.00;100923.53;5008083;28;20132;-68
2021/07/10 06:10:35;;;;;;;15.98;11.60;;;;;;;16.96;100.00;100922.91;5014053;28;20049;-68
2021/07/10 06:13:04;;;;;;;19.50;11.95;;;;;;;17.04;100.00;100916.13;5005892;28;20523;-68
2021/07/10 06:15:31;;;;;;;14.40;9.95;;;;;;;17.35;99.33;100919.78;5007037;28;20691;-68
2021/07/10 06:17:58;;;;;;;12.07;10.43;;;;;;;17.45;99.82;100928.69;4993621;28;20386;-68
2021/07/10 06:20:26;;;;;;;14.88;10.75;;;;;;;17.55;96.80;100918.97;5011681;28;20056;-68
2021/07/10 06:22:53;;;;;;;12.05;9.52;;;;;;;17.56;97.19;100919.78;5007531;28;20045;-68
2021/07/10 06:25:21;;;;;;;14.38;10.07;;;;;;;17.74;97.26;100931.59;4990355;28;20050;-68
2021/07/10 06:27:50;;;;;;;15.48;10.55;;;;;;;17.96;94.72;100931.47;4992531;28;20052;-67
2021/07/10 06:30:18;;;;;;;16.23;9.98;;;;;;;17.85;92.62;100925.38;5007434;28;20046;-67
2021/07/10 06:32:46;;;;;;;15.25;9.32;;;;;;;17.64;94.72;100933.31;5014033;28;20053;-68
2021/07/10 06:35:13;;;;;;;9.68;8.45;;;;;;;17.70;95.36;100932.81;4990983;28;20060;-68
2021/07/10 06:37:41;;;;;;;11.52;9.40;;;;;;;17.70;94.41;100932.81;4997098;28;20054;-68
2021/07/10 06:40:10;;;;;;;15.38;9.13;;;;;;;17.68;94.08;100932.94;4990005;28;20053;-68
2021/07/10 06:42:38;;;;;;;14.82;9.07;;;;;;;18.08;92.19;100944.72;4989944;28;20053;-68
2021/07/10 06:45:07;;;;;;;18.20;9.63;;;;;;;18.76;88.76;100937.91;5002542;28;20052;-67
2021/07/10 06:47:35;;;;;;;12.35;8.95;;;;;;;18.71;87.42;100933.00;4990259;28;20063;-69
2021/07/10 06:50:05;;;;;;;12.57;8.30;;;;;;;19.16;85.34;100940.53;4982881;28;20050;-69
2021/07/10 06:52:33;;;;;;;14.27;7.90;;;;;;;20.48;78.91;100936.34;4977037;28;20045;-68
2021/07/10 06:55:01;;;;;;;13.10;7.78;;;;;;;21.21;74.03;100931.06;4982660;28;20049;-68
2021/07/10 06:57:28;;;;;;;10.80;8.25;;;;;;;21.53;72.18;100938.59;4995629;28;20140;-69
2021/07/10 06:59:56;;;;;;;11.52;7.03;;;;;;;19.61;77.25;100934.69;5006726;28;20049;-68
2021/07/10 07:02:23;;;;;;;12.68;7.57;;;;;;;20.20;76.64;100938.97;5011664;28;20512;-68
2021/07/10 07:04:50;;;;;;;7.28;6.35;;;;;;;20.46;76.46;100936.50;5009749;28;20076;-66
2021/07/10 07:07:18;;;;;;;8.60;7.20;;;;;;;20.03;76.76;100939.69;5005160;28;20083;-68
2021/07/10 07:09:45;;;;;;;12.80;7.47;;;;;;;19.95;77.59;100947.63;5006047;28;20054;-67
2021/07/10 07:12:13;;;;;;;13.75;8.23;;;;;;;19.68;77.54;100933.16;5000176;28;20052;-68
2021/07/10 07:14:40;;;;;;;12.40;7.68;;;;;;;19.23;78.44;100940.84;5007390;28;20046;-68
2021/07/10 07:17:07;;;;;;;12.80;8.27;;;;;;;19.97;75.64;100938.44;5004884;28;20523;-68
2021/07/10 07:19:35;;;;;;;9.85;7.45;;;;;;;19.90;76.80;100945.38;5007638;28;20443;-69
2021/07/10 07:22:03;;;;;;;8.98;7.38;;;;;;;20.13;75.27;100945.06;5010785;28;20054;-69
2021/07/10 07:24:30;;;;;;;11.57;7.22;;;;;;;21.52;71.37;100944.06;5003584;28;20038;-68
2021/07/10 07:26:57;;;;;;;7.75;6.47;;;;;;;21.62;69.34;100944.84;5012171;28;20056;-69
2021/07/10 07:29:25;;;;;;;10.18;7.68;;;;;;;21.79;67.28;100946.66;5005737;28;20046;-69
2021/07/10 07:31:52;;;;;;;13.55;7.43;;;;;;;22.13;66.22;100949.47;5005958;28;20064;-67
2021/07/10 07:34:19;;;;;;;11.10;7.00;;;;;;;21.68;68.23;100942.38;4990784;28;20054;-68
2021/07/10 07:36:47;;;;;;;10.55;7.10;;;;;;;21.67;67.81;100948.75;4988654;28;20060;-68
2021/07/10 07:39:15;;;;;;;10.35;6.50;;;;;;;24.15;57.62;100954.72;4992995;28;20056;-68
2021/07/10 07:41:42;;;;;;;7.03;5.75;;;;;;;23.53;59.24;100945.47;4989838;28;20167;-69
2021/07/10 07:44:10;;;;;;;9.45;6.10;;;;;;;22.50;62.00;100953.69;4988901;28;20068;-71
2021/07/10 07:46:37;;;;;;;9.10;5.88;;;;;;;22.48;62.32;100953.03;5004089;28;20054;-69
2021/07/10 07:49:05;;;;;;;8.48;6.28;;;;;;;23.27;59.95;100962.56;5005933;28;20037;-68
2021/07/10 07:51:32;;;;;;;6.47;5.35;;;;;;;25.48;53.92;100952.16;4971939;28;20510;-69
2021/07/10 07:54:00;;;;;;;10.05;5.10;;;;;;;26.55;49.28;100957.44;4995200;28;20057;-68
2021/07/10 07:56:27;;;;;;;9.57;5.15;;;;;;;24.17;54.37;100960.75;5005670;28;20050;-69
2021/07/10 07:58:54;;;;;;;7.00;5.20;;;;;;;26.15;49.46;100960.38;5004914;28;20054;-69
2021/07/10 08:01:22;;;;;;;8.88;4.60;;;;;;;26.86;47.20;100957.22;5006252;28;20063;-68
2021/07/10 08:03:50;;;;;;;9.43;4.72;;;;;;;26.69;47.51;100967.41;4995734;28;20075;-70
2021/07/10 08:06:18;;;;;;;14.23;5.22;;;;;;;24.40;54.64;100979.75;5002449;28;20045;-68
2021/07/10 08:08:45;;;;;;;9.90;5.00;;;;;;;24.57;54.03;100985.94;5011692;28;20061;-69
2021/07/10 08:11:12;;;;;;;7.22;4.50;;;;;;;27.57;45.80;100977.19;5013801;28;20057;-68
2021/07/10 08:13:40;;;;;;;6.38;3.92;;;;;;;28.29;42.30;100976.16;4995212;28;20079;-68
2021/07/10 08:16:09;;;;;;;7.53;4.15;;;;;;;27.19;43.32;100977.41;4989351;28;20049;-69
2021/07/10 08:18:37;;;;;;;8.05;4.05;;;;;;;27.81;43.31;100981.38;5005957;28;20064;-69
2021/07/10 08:21:05;;;;;;;8.90;3.40;;;;;;;28.13;42.81;100985.41;4989418;28;20516;-68
2021/07/10 08:23:32;;;;;;;5.63;4.55;;;;;;;27.29;43.40;100987.06;5010792;28;20080;-68
2021/07/10 08:26:00;;;;;;;6.97;4.30;;;;;;;28.19;41.31;100992.75;5008786;28;20768;-68
2021/07/10 08:28:27;;;;;;;3.90;3.33;;;;;;;29.64;39.29;100990.97;5007716;28;20045;-67
2021/07/10 08:30:55;;;;;;;8.57;3.25;;;;;;;31.32;35.38;100988.59;5007826;28;20058;-68
2021/07/10 08:33:22;;;;;;;10.75;3.70;;;;;;;31.36;35.27;100989.81;5010640;28;20046;-70
2021/07/10 08:35:50;;;;;;;7.88;3.63;;;;;;;30.10;36.83;100982.00;5007106;28;20054;-69
2021/07/10 08:38:17;;;;;;;6.55;3.17;;;;;;;28.27;41.18;100995.28;5010369;28;20060;-69
2021/07/10 08:40:45;;;;;;;6.25;3.22;;;;;;;26.50;44.84;100980.44;4995071;28;20057;-68
2021/07/10 08:43:13;;;;;;;4.68;3.85;;;;;;;25.91;47.01;100987.59;4996519;28;20064;-68
2021/07/10 08:45:45;;;;;;;5.68;3.35;;;;;;;25.49;48.05;100988.91;5009336;28;20535;-69
2021/07/10 08:48:12;;;;;;;4.18;3.78;;;;;;;25.56;47.92;100986.31;5009414;28;20057;-69
2021/07/10 08:50:40;;;;;;;9.52;4.22;;;;;;;24.98;47.82;100985.75;4999156;28;20046;-69
2021/07/10 08:53:08;;;;;;;5.63;3.50;;;;;;;24.09;51.05;100992.19;4998172;28;20052;-68
2021/07/10 08:55:36;;;;;;;5.82;3.85;;;;;;;23.52;54.06;100978.72;5009248;28;20053;-69
2021/07/10 08:58:04;;;;;;;8.23;4.03;;;;;;;23.16;53.42;100982.53;5003741;28;20080;-68
2021/07/10 09:00:35;;;;;;;7.05;4.60;;;;;;;22.77;55.27;100979.47;4994263;28;20064;-68
2021/07/10 09:03:02;;;;;;;5.10;3.85;;;;;;;23.40;54.95;100980.88;4992973;28;20426;-69
2021/07/10 09:05:30;;;;;;;5.97;4.63;;;;;;;23.16;55.42;100982.53;4993073;28;20049;-68
2021/07/10 09:08:21;;;;;;;6.25;4.30;;;;;;;23.28;54.90;100983.06;5009438;28;20508;-68
2021/07/10 09:10:51;;;;;;;9.32;5.60;;;;;;;23.23;54.33;100983.53;5006473;28;20060;-69
2021/07/10 09:13:19;;;;;;;6.00;5.22;;;;;;;23.74;54.17;100986.19;4995206;28;20050;-68
2021/07/10 09:15:47;;;;;;;6.93;5.55;;;;;;;23.44;54.27;100990.31;5007754;28;20046;-68
2021/07/10 09:18:15;;;;;;;8.80;5.40;;;;;;;23.30;54.09;100982.88;4999763;28;20050;-68
2021/07/10 09:20:44;;;;;;;7.82;5.40;;;;;;;22.99;55.36;100983.47;5007759;28;20662;-68
2021/07/10 09:23:40;;;;;;;9.65;5.55;;;;;;;23.17;54.87;100976.13;4997250;28;20060;-69
2021/07/10 09:26:23;;;;;;;11.68;6.10;;;;;;;23.43;54.40;100988.63;5007839;28;20091;-69
2021/07/10 09:28:59;;;;;;;10.88;5.50;;;;;;;23.80;53.73;100977.44;5010645;28;20045;-69
2021/07/10 09:31:29;;;;;;;13.65;7.05;;;;;;;23.93;53.72;100982.31;5006820;28;20045;-68
2021/07/10 09:33:59;;;;;;;7.28;5.55;;;;;;;23.62;54.56;100991.00;5009320;28;20058;-69
2021/07/10 09:36:26;;;;;;;7.80;5.93;;;;;;;23.94;53.57;100982.13;4993156;28;20090;-70
2021/07/10 09:38:54;;;;;;;7.65;5.20;;;;;;;23.49;53.34;100987.97;5010191;28;20049;-69
2021/07/10 09:41:30;;;;;;;10.10;6.25;;;;;;;23.01;55.03;100986.84;5004528;28;20488;-69
2021/07/10 09:44:06;;;;;;;8.88;5.75;;;;;;;23.09;55.59;100986.84;5009932;28;20049;-69
2021/07/10 09:46:33;;;;;;;10.02;5.55;;;;;;;23.14;54.56;100989.88;5007371;28;20058;-70
2021/07/10 09:49:18;;;;;;;9.73;6.10;;;;;;;22.64;56.54;100990.66;4999650;28;20050;-69
2021/07/10 09:51:46;;;;;;;10.05;6.03;;;;;;;22.69;56.37;100995.53;5002392;28;20072;-69
2021/07/10 09:54:14;;;;;;;8.55;5.97;;;;;;;22.94;56.61;100997.38;5012189;28;20066;-69
2021/07/10 09:57:00;;;;;;;8.13;6.10;;;;;;;23.17;55.88;100997.63;4998680;28;20060;-69
2021/07/10 09:59:28;;;;;;;8.25;6.38;;;;;;;23.13;54.67;100996.25;5009095;28;20054;-69
2021/07/10 10:01:56;;;;;;;8.48;6.82;;;;;;;23.19;54.29;100995.63;5010438;28;20068;-68
2021/07/10 10:04:29;;;;;;;7.78;5.50;;;;;;;22.96;55.19;100990.00;5009391;28;20068;-69
2021/07/10 10:07:00;;;;;;;10.18;5.85;;;;;;;22.83;55.03;100983.34;5017610;28;20046;-69
2021/07/10 10:09:29;;;;;;;8.52;5.70;;;;;;;23.15;54.32;100982.69;4996329;28;20046;-68
2021/07/10 10:12:01;;;;;;;9.98;6.85;;;;;;;22.95;55.40;100982.09;4998108;28;20098;-67
2021/07/10 10:14:32;;;;;;;9.55;6.63;;;;;;;22.90;56.06;100985.28;4991133;28;20052;-68
2021/07/10 10:16:59;;;;;;;8.05;5.88;;;;;;;22.73;56.32;100986.16;4993171;28;20484;-69
2021/07/10 10:19:30;;;;;;;11.73;6.00;;;;;;;22.86;56.29;100973.16;4988438;28;20144;-69
2021/07/10 10:22:00;;;;;;;10.40;6.13;;;;;;;22.83;56.06;100983.34;5002939;28;20042;-69
2021/07/10 10:24:29;;;;;;;12.25;6.45;;;;;;;23.01;55.16;100970.75;5012042;28;20064;-69
2021/07/10 10:26:57;;;;;;;6.82;5.95;;;;;;;23.41;54.59;100983.41;4999206;28;20046;-69
2021/07/10 10:29:26;;;;;;;11.05;6.07;;;;;;;23.29;53.56;100975.84;4996449;28;20084;-69
2021/07/10 10:31:54;;;;;;;7.50;5.88;;;;;;;22.19;55.38;100972.13;5009006;28;20056;-70
2021/07/10 10:34:21;;;;;;;9.98;5.60;;;;;;;22.16;56.14;100969.78;5007453;28;20050;-69
2021/07/10 10:36:51;;;;;;;13.20;5.70;;;;;;;22.58;54.41;100972.53;4995232;28;20404;-70
2021/07/10 10:39:20;;;;;;;7.90;5.88;;;;;;;22.23;55.98;100971.63;5006353;28;20042;-70
2021/07/10 10:41:50;;;;;;;8.68;5.47;;;;;;;22.68;54.69;100969.72;4995642;28;20046;-70
2021/07/10 10:44:21;;;;;;;10.65;5.53;;;;;;;23.00;52.81;100969.03;4998065;28;20050;-69
2021/07/10 10:46:56;;;;;;;8.25;5.00;;;;;;;23.06;52.47;100967.56;4993318;28;20385;-69
2021/07/10 10:49:32;;;;;;;;;;;;;;;23.27;52.40;100973.31;5012586;28;20049;-69
2021/07/10 10:52:18;;;;;;;;;;;;;;;23.88;51.25;100974.75;5013696;28;19973;-70
2021/07/10 10:54:51;;;;;;;8.07;5.05;;;;;;;24.04;51.39;100971.19;5017387;28;19985;-69
2021/07/10 10:57:48;;;;;;;6.47;4.60;;;;;;;23.86;51.11;100971.38;4993252;28;20045;-69
2021/07/10 11:00:24;;;;;;;6.47;4.50;;;;;;;23.96;50.66;100973.91;5007580;28;20049;-69
2021/07/10 11:03:01;;;;;;;9.50;4.85;;;;;;;24.13;50.44;100974.72;5013931;28;20045;-68
2021/07/10 11:05:31;;;;;;;7.85;5.00;;;;;;;23.62;50.85;100972.19;5005014;28;20046;-69
2021/07/10 11:08:37;;;;;;;7.63;4.65;;;;;;;23.62;50.47;100969.50;5007929;28;20050;-68
2021/07/10 11:11:04;;;;;;;;;;;;;;;24.05;50.85;100977.44;4964843;28;20130;-69
2021/07/10 11:13:37;;;;;;;11.75;4.47;;;;;;;24.41;48.86;100972.53;5001559;28;20016;-71
2021/07/10 11:16:09;;;;;;;5.97;4.90;;;;;;;24.52;47.87;100972.16;5009141;28;20097;-70
2021/07/10 11:18:45;;;;;;;7.05;5.18;;;;;;;24.61;48.24;100968.41;5025370;28;20397;-69
2021/07/10 11:21:39;;;;;;;11.85;4.60;;;;;;;24.07;50.33;100967.34;5001948;28;20047;-69